sensor_id;sensor_type;location;lat;lon;timestamp;temperature;humidity
14101;DHT22;7127;49.372;8.166;2023-01-19T00:01:34;4.40;50.30
14101;DHT22;7127;49.372;8.166;2023-01-19T00:04:01;3.90;49.90
14101;DHT22;7127;49.372;8.166;2023-01-19T00:06:29;4.30;50.20
14101;DHT22;7127;49.372;8.166;2023-01-19T00:08:57;4.40;50.30
14101;DHT22;7127;49.372;8.166;2023-01-19T00:11:24;3.80;49.90
14101;DHT22;7127;49.372;8.166;2023-01-19T00:13:51;3.70;49.90
14101;DHT22;7127;49.372;8.166;2023-01-19T00:16:19;4.20;50.40
14101;DHT22;7127;49.372;8.166;2023-01-19T00:18:48;4.00;50.30
14101;DHT22;7127;49.372;8.166;2023-01-19T00:21:16;4.30;50.70
14101;DHT22;7127;49.372;8.166;2023-01-19T00:23:45;4.30;50.80
14101;DHT22;7127;49.372;8.166;2023-01-19T00:26:13;3.70;50.40
14101;DHT22;7127;49.372;8.166;2023-01-19T00:28:42;3.70;50.40
14101;DHT22;7127;49.372;8.166;2023-01-19T00:31:10;3.90;50.60
14101;DHT22;7127;49.372;8.166;2023-01-19T00:33:37;3.70;50.50
14101;DHT22;7127;49.372;8.166;2023-01-19T00:36:04;3.70;50.40
14101;DHT22;7127;49.372;8.166;2023-01-19T00:38:31;3.60;50.30
14101;DHT22;7127;49.372;8.166;2023-01-19T00:41:00;3.80;50.50
14101;DHT22;7127;49.372;8.166;2023-01-19T00:43:27;4.30;51.00
14101;DHT22;7127;49.372;8.166;2023-01-19T00:45:53;3.60;50.50
14101;DHT22;7127;49.372;8.166;2023-01-19T00:48:20;3.60;50.60
14101;DHT22;7127;49.372;8.166;2023-01-19T00:50:47;3.60;50.70
14101;DHT22;7127;49.372;8.166;2023-01-19T00:53:14;3.60;50.60
14101;DHT22;7127;49.372;8.166;2023-01-19T00:55:41;3.50;50.50
14101;DHT22;7127;49.372;8.166;2023-01-19T00:58:10;3.50;50.50
14101;DHT22;7127;49.372;8.166;2023-01-19T01:00:38;4.30;51.30
14101;DHT22;7127;49.372;8.166;2023-01-19T01:03:05;3.40;50.50
14101;DHT22;7127;49.372;8.166;2023-01-19T01:05:32;3.40;50.60
14101;DHT22;7127;49.372;8.166;2023-01-19T01:07:59;3.40;50.80
14101;DHT22;7127;49.372;8.166;2023-01-19T01:10:28;3.90;51.20
14101;DHT22;7127;49.372;8.166;2023-01-19T01:12:55;3.40;50.90
14101;DHT22;7127;49.372;8.166;2023-01-19T01:15:25;4.30;51.60
14101;DHT22;7127;49.372;8.166;2023-01-19T01:17:52;4.30;51.70
14101;DHT22;7127;49.372;8.166;2023-01-19T01:20:20;3.40;51.10
14101;DHT22;7127;49.372;8.166;2023-01-19T01:22:50;3.90;51.40
14101;DHT22;7127;49.372;8.166;2023-01-19T01:25:20;3.40;51.10
14101;DHT22;7127;49.372;8.166;2023-01-19T01:27:48;3.70;51.20
14101;DHT22;7127;49.372;8.166;2023-01-19T01:30:15;3.70;51.30
14101;DHT22;7127;49.372;8.166;2023-01-19T01:32:44;3.40;51.10
14101;DHT22;7127;49.372;8.166;2023-01-19T01:35:12;4.10;51.60
14101;DHT22;7127;49.372;8.166;2023-01-19T01:37:40;3.40;51.10
14101;DHT22;7127;49.372;8.166;2023-01-19T01:40:10;3.90;51.60
14101;DHT22;7127;49.372;8.166;2023-01-19T01:42:38;3.40;51.20
14101;DHT22;7127;49.372;8.166;2023-01-19T01:45:22;3.80;51.50
14101;DHT22;7127;49.372;8.166;2023-01-19T01:47:53;3.40;51.30
14101;DHT22;7127;49.372;8.166;2023-01-19T01:50:22;3.60;51.10
14101;DHT22;7127;49.372;8.166;2023-01-19T01:52:52;3.40;51.10
14101;DHT22;7127;49.372;8.166;2023-01-19T01:55:22;3.40;51.30
14101;DHT22;7127;49.372;8.166;2023-01-19T01:57:53;3.30;51.20
14101;DHT22;7127;49.372;8.166;2023-01-19T02:00:22;3.40;51.40
14101;DHT22;7127;49.372;8.166;2023-01-19T02:02:49;3.60;51.50
14101;DHT22;7127;49.372;8.166;2023-01-19T02:05:21;3.90;51.80
14101;DHT22;7127;49.372;8.166;2023-01-19T02:07:54;3.70;51.70
14101;DHT22;7127;49.372;8.166;2023-01-19T02:10:41;4.20;51.80
14101;DHT22;7127;49.372;8.166;2023-01-19T02:13:28;3.30;51.30
14101;DHT22;7127;49.372;8.166;2023-01-19T02:15:57;3.30;51.40
14101;DHT22;7127;49.372;8.166;2023-01-19T02:18:27;3.30;51.60
14101;DHT22;7127;49.372;8.166;2023-01-19T02:21:03;3.40;51.60
14101;DHT22;7127;49.372;8.166;2023-01-19T02:23:38;3.40;51.60
14101;DHT22;7127;49.372;8.166;2023-01-19T02:26:06;4.00;52.10
14101;DHT22;7127;49.372;8.166;2023-01-19T02:28:36;3.30;51.60
14101;DHT22;7127;49.372;8.166;2023-01-19T02:31:05;3.40;51.60
14101;DHT22;7127;49.372;8.166;2023-01-19T02:33:32;3.90;52.00
14101;DHT22;7127;49.372;8.166;2023-01-19T02:35:59;4.50;52.40
14101;DHT22;7127;49.372;8.166;2023-01-19T02:38:27;4.00;52.10
14101;DHT22;7127;49.372;8.166;2023-01-19T02:40:59;3.40;51.70
14101;DHT22;7127;49.372;8.166;2023-01-19T02:43:28;3.70;51.90
14101;DHT22;7127;49.372;8.166;2023-01-19T02:45:56;3.40;51.60
14101;DHT22;7127;49.372;8.166;2023-01-19T02:48:24;3.40;51.60
14101;DHT22;7127;49.372;8.166;2023-01-19T02:50:52;3.40;51.60
14101;DHT22;7127;49.372;8.166;2023-01-19T02:53:41;3.30;51.60
14101;DHT22;7127;49.372;8.166;2023-01-19T02:59:13;4.50;52.80
14101;DHT22;7127;49.372;8.166;2023-01-19T03:01:55;3.50;52.10
14101;DHT22;7127;49.372;8.166;2023-01-19T03:04:28;3.50;52.20
14101;DHT22;7127;49.372;8.166;2023-01-19T03:07:04;3.60;52.30
14101;DHT22;7127;49.372;8.166;2023-01-19T03:09:39;3.60;52.50
14101;DHT22;7127;49.372;8.166;2023-01-19T03:12:19;4.10;52.90
14101;DHT22;7127;49.372;8.166;2023-01-19T03:14:49;3.70;53.50
14101;DHT22;7127;49.372;8.166;2023-01-19T03:17:19;4.10;53.40
14101;DHT22;7127;49.372;8.166;2023-01-19T03:19:48;3.80;53.10
14101;DHT22;7127;49.372;8.166;2023-01-19T03:22:18;3.90;52.90
14101;DHT22;7127;49.372;8.166;2023-01-19T03:24:47;3.90;52.80
14101;DHT22;7127;49.372;8.166;2023-01-19T03:27:19;4.40;53.20
14101;DHT22;7127;49.372;8.166;2023-01-19T03:29:52;4.90;53.40
14101;DHT22;7127;49.372;8.166;2023-01-19T03:32:24;4.00;52.60
14101;DHT22;7127;49.372;8.166;2023-01-19T03:34:55;4.80;53.30
14101;DHT22;7127;49.372;8.166;2023-01-19T03:37:25;4.10;52.70
14101;DHT22;7127;49.372;8.166;2023-01-19T03:39:53;4.40;52.90
14101;DHT22;7127;49.372;8.166;2023-01-19T03:42:23;4.20;52.50
14101;DHT22;7127;49.372;8.166;2023-01-19T03:44:51;5.00;53.40
14101;DHT22;7127;49.372;8.166;2023-01-19T03:47:20;4.60;52.40
14101;DHT22;7127;49.372;8.166;2023-01-19T03:49:49;4.10;52.10
14101;DHT22;7127;49.372;8.166;2023-01-19T03:52:24;4.80;52.70
14101;DHT22;7127;49.372;8.166;2023-01-19T03:54:51;4.40;52.30
14101;DHT22;7127;49.372;8.166;2023-01-19T03:57:19;4.00;52.00
14101;DHT22;7127;49.372;8.166;2023-01-19T03:59:48;4.00;52.10
14101;DHT22;7127;49.372;8.166;2023-01-19T04:02:15;4.00;52.10
14101;DHT22;7127;49.372;8.166;2023-01-19T04:04:42;3.90;51.90
14101;DHT22;7127;49.372;8.166;2023-01-19T04:07:10;3.90;52.10
14101;DHT22;7127;49.372;8.166;2023-01-19T04:09:37;3.80;51.90
14101;DHT22;7127;49.372;8.166;2023-01-19T04:12:04;4.10;52.10
14101;DHT22;7127;49.372;8.166;2023-01-19T04:14:31;3.80;52.00
14101;DHT22;7127;49.372;8.166;2023-01-19T04:16:59;4.40;52.40
14101;DHT22;7127;49.372;8.166;2023-01-19T04:19:26;3.70;52.00
14101;DHT22;7127;49.372;8.166;2023-01-19T04:21:54;3.60;51.90
14101;DHT22;7127;49.372;8.166;2023-01-19T04:24:21;4.00;52.20
14101;DHT22;7127;49.372;8.166;2023-01-19T04:26:50;4.00;52.30
14101;DHT22;7127;49.372;8.166;2023-01-19T04:29:18;3.70;52.30
14101;DHT22;7127;49.372;8.166;2023-01-19T04:31:45;4.20;52.70
14101;DHT22;7127;49.372;8.166;2023-01-19T04:34:14;3.50;52.30
14101;DHT22;7127;49.372;8.166;2023-01-19T04:36:41;3.60;52.40
14101;DHT22;7127;49.372;8.166;2023-01-19T04:39:09;3.60;52.40
14101;DHT22;7127;49.372;8.166;2023-01-19T04:41:36;3.50;52.40
14101;DHT22;7127;49.372;8.166;2023-01-19T04:44:04;3.60;52.50
14101;DHT22;7127;49.372;8.166;2023-01-19T04:46:31;3.60;52.60
14101;DHT22;7127;49.372;8.166;2023-01-19T04:48:58;4.10;52.90
14101;DHT22;7127;49.372;8.166;2023-01-19T04:51:27;3.60;52.60
14101;DHT22;7127;49.372;8.166;2023-01-19T04:53:54;3.60;52.60
14101;DHT22;7127;49.372;8.166;2023-01-19T04:56:22;3.90;52.90
14101;DHT22;7127;49.372;8.166;2023-01-19T04:58:49;4.30;53.20
14101;DHT22;7127;49.372;8.166;2023-01-19T05:01:16;3.60;52.80
14101;DHT22;7127;49.372;8.166;2023-01-19T05:03:43;3.80;53.00
14101;DHT22;7127;49.372;8.166;2023-01-19T05:06:10;3.60;52.80
14101;DHT22;7127;49.372;8.166;2023-01-19T05:08:39;3.80;53.00
14101;DHT22;7127;49.372;8.166;2023-01-19T05:11:06;4.40;53.40
14101;DHT22;7127;49.372;8.166;2023-01-19T05:13:33;4.40;53.40
14101;DHT22;7127;49.372;8.166;2023-01-19T05:16:00;3.80;52.90
14101;DHT22;7127;49.372;8.166;2023-01-19T05:18:27;4.00;52.90
14101;DHT22;7127;49.372;8.166;2023-01-19T05:21:00;3.90;53.00
14101;DHT22;7127;49.372;8.166;2023-01-19T05:23:27;4.50;53.50
14101;DHT22;7127;49.372;8.166;2023-01-19T05:25:57;4.60;53.60
14101;DHT22;7127;49.372;8.166;2023-01-19T05:28:25;5.10;53.90
14101;DHT22;7127;49.372;8.166;2023-01-19T05:30:52;4.00;53.20
14101;DHT22;7127;49.372;8.166;2023-01-19T05:33:20;3.90;53.20
14101;DHT22;7127;49.372;8.166;2023-01-19T05:35:48;4.20;53.60
14101;DHT22;7127;49.372;8.166;2023-01-19T05:38:16;4.40;53.60
14101;DHT22;7127;49.372;8.166;2023-01-19T05:40:43;4.40;53.40
14101;DHT22;7127;49.372;8.166;2023-01-19T05:43:12;4.00;53.20
14101;DHT22;7127;49.372;8.166;2023-01-19T05:45:39;4.10;53.30
14101;DHT22;7127;49.372;8.166;2023-01-19T05:48:07;4.10;53.30
14101;DHT22;7127;49.372;8.166;2023-01-19T05:50:34;4.10;53.50
14101;DHT22;7127;49.372;8.166;2023-01-19T05:53:01;4.10;53.40
14101;DHT22;7127;49.372;8.166;2023-01-19T05:55:28;4.80;54.00
14101;DHT22;7127;49.372;8.166;2023-01-19T05:57:55;4.20;53.50
14101;DHT22;7127;49.372;8.166;2023-01-19T06:00:24;4.50;53.70
14101;DHT22;7127;49.372;8.166;2023-01-19T06:02:52;4.20;53.40
14101;DHT22;7127;49.372;8.166;2023-01-19T06:05:19;4.20;53.40
14101;DHT22;7127;49.372;8.166;2023-01-19T06:07:45;4.40;53.50
14101;DHT22;7127;49.372;8.166;2023-01-19T06:10:12;4.70;53.80
14101;DHT22;7127;49.372;8.166;2023-01-19T06:12:40;4.30;53.70
14101;DHT22;7127;49.372;8.166;2023-01-19T06:15:07;4.30;53.60
14101;DHT22;7127;49.372;8.166;2023-01-19T06:17:36;4.30;53.50
14101;DHT22;7127;49.372;8.166;2023-01-19T06:20:03;4.40;53.70
14101;DHT22;7127;49.372;8.166;2023-01-19T06:22:31;4.30;53.60
14101;DHT22;7127;49.372;8.166;2023-01-19T06:24:58;4.40;53.70
14101;DHT22;7127;49.372;8.166;2023-01-19T06:27:25;4.40;53.60
14101;DHT22;7127;49.372;8.166;2023-01-19T06:33:10;4.50;53.90
14101;DHT22;7127;49.372;8.166;2023-01-19T06:35:46;4.50;53.80
14101;DHT22;7127;49.372;8.166;2023-01-19T06:38:23;5.30;54.30
14101;DHT22;7127;49.372;8.166;2023-01-19T06:40:54;4.80;54.00
14101;DHT22;7127;49.372;8.166;2023-01-19T06:43:23;4.40;53.70
14101;DHT22;7127;49.372;8.166;2023-01-19T06:45:52;4.70;53.90
14101;DHT22;7127;49.372;8.166;2023-01-19T06:48:21;4.70;53.80
14101;DHT22;7127;49.372;8.166;2023-01-19T06:50:48;5.10;54.10
14101;DHT22;7127;49.372;8.166;2023-01-19T06:53:16;4.80;53.90
14101;DHT22;7127;49.372;8.166;2023-01-19T06:55:45;5.40;54.20
14101;DHT22;7127;49.372;8.166;2023-01-19T06:58:12;4.90;53.80
14101;DHT22;7127;49.372;8.166;2023-01-19T07:00:39;5.80;54.40
14101;DHT22;7127;49.372;8.166;2023-01-19T07:03:08;4.90;53.80
14101;DHT22;7127;49.372;8.166;2023-01-19T07:05:39;5.00;53.90
14101;DHT22;7127;49.372;8.166;2023-01-19T07:08:31;5.10;53.90
14101;DHT22;7127;49.372;8.166;2023-01-19T07:11:04;5.00;54.00
14101;DHT22;7127;49.372;8.166;2023-01-19T07:13:37;5.10;54.00
14101;DHT22;7127;49.372;8.166;2023-01-19T07:16:07;5.20;54.00
14101;DHT22;7127;49.372;8.166;2023-01-19T07:18:39;5.10;53.90
14101;DHT22;7127;49.372;8.166;2023-01-19T07:21:09;5.20;54.00
14101;DHT22;7127;49.372;8.166;2023-01-19T07:23:43;5.20;53.90
14101;DHT22;7127;49.372;8.166;2023-01-19T07:29:20;5.20;53.90
14101;DHT22;7127;49.372;8.166;2023-01-19T07:31:47;5.30;53.90
14101;DHT22;7127;49.372;8.166;2023-01-19T07:34:14;5.30;54.50
14101;DHT22;7127;49.372;8.166;2023-01-19T07:36:43;5.30;53.90
14101;DHT22;7127;49.372;8.166;2023-01-19T07:39:10;5.30;53.90
14101;DHT22;7127;49.372;8.166;2023-01-19T07:41:36;5.60;54.10
14101;DHT22;7127;49.372;8.166;2023-01-19T07:44:03;6.00;55.00
14101;DHT22;7127;49.372;8.166;2023-01-19T07:46:30;5.50;54.00
14101;DHT22;7127;49.372;8.166;2023-01-19T07:48:57;5.50;54.00
14101;DHT22;7127;49.372;8.166;2023-01-19T07:51:24;5.80;54.20
14101;DHT22;7127;49.372;8.166;2023-01-19T07:53:53;5.40;53.90
14101;DHT22;7127;49.372;8.166;2023-01-19T07:56:20;5.80;54.20
14101;DHT22;7127;49.372;8.166;2023-01-19T07:58:49;5.50;53.90
14101;DHT22;7127;49.372;8.166;2023-01-19T08:01:16;5.80;54.10
14101;DHT22;7127;49.372;8.166;2023-01-19T08:03:43;5.90;54.20
14101;DHT22;7127;49.372;8.166;2023-01-19T08:06:18;5.70;53.90
14101;DHT22;7127;49.372;8.166;2023-01-19T08:08:45;5.70;54.10
14101;DHT22;7127;49.372;8.166;2023-01-19T08:11:13;5.60;53.90
14101;DHT22;7127;49.372;8.166;2023-01-19T08:13:41;5.80;54.10
14101;DHT22;7127;49.372;8.166;2023-01-19T08:16:08;6.10;54.30
14101;DHT22;7127;49.372;8.166;2023-01-19T08:18:35;5.80;54.10
14101;DHT22;7127;49.372;8.166;2023-01-19T08:21:02;5.80;54.00
14101;DHT22;7127;49.372;8.166;2023-01-19T08:23:29;5.70;53.90
14101;DHT22;7127;49.372;8.166;2023-01-19T08:25:56;5.80;54.00
14101;DHT22;7127;49.372;8.166;2023-01-19T08:28:24;6.00;54.10
14101;DHT22;7127;49.372;8.166;2023-01-19T08:30:51;5.80;54.00
14101;DHT22;7127;49.372;8.166;2023-01-19T08:33:20;5.90;54.10
14101;DHT22;7127;49.372;8.166;2023-01-19T08:35:49;5.80;53.90
14101;DHT22;7127;49.372;8.166;2023-01-19T08:38:16;6.10;54.10
14101;DHT22;7127;49.372;8.166;2023-01-19T08:40:43;5.80;53.90
14101;DHT22;7127;49.372;8.166;2023-01-19T08:43:12;6.10;54.10
14101;DHT22;7127;49.372;8.166;2023-01-19T08:45:42;5.90;54.60
14101;DHT22;7127;49.372;8.166;2023-01-19T08:48:13;5.90;54.10
14101;DHT22;7127;49.372;8.166;2023-01-19T08:50:40;5.90;54.10
14101;DHT22;7127;49.372;8.166;2023-01-19T08:53:07;6.40;54.40
14101;DHT22;7127;49.372;8.166;2023-01-19T08:55:35;6.00;54.10
14101;DHT22;7127;49.372;8.166;2023-01-19T08:58:03;6.10;54.20
14101;DHT22;7127;49.372;8.166;2023-01-19T09:00:31;6.00;54.10
14101;DHT22;7127;49.372;8.166;2023-01-19T09:03:00;6.10;54.00
14101;DHT22;7127;49.372;8.166;2023-01-19T09:05:28;6.20;54.00
14101;DHT22;7127;49.372;8.166;2023-01-19T09:07:56;6.10;53.90
14101;DHT22;7127;49.372;8.166;2023-01-19T09:10:23;7.10;54.60
14101;DHT22;7127;49.372;8.166;2023-01-19T09:12:50;6.10;53.80
14101;DHT22;7127;49.372;8.166;2023-01-19T09:15:18;6.50;54.30
14101;DHT22;7127;49.372;8.166;2023-01-19T09:17:51;6.20;54.10
14101;DHT22;7127;49.372;8.166;2023-01-19T09:20:21;6.20;54.20
14101;DHT22;7127;49.372;8.166;2023-01-19T09:22:49;6.60;54.50
14101;DHT22;7127;49.372;8.166;2023-01-19T09:25:16;6.40;54.40
14101;DHT22;7127;49.372;8.166;2023-01-19T09:27:43;6.40;54.40
14101;DHT22;7127;49.372;8.166;2023-01-19T09:30:11;6.50;54.30
14101;DHT22;7127;49.372;8.166;2023-01-19T09:32:39;6.50;54.20
14101;DHT22;7127;49.372;8.166;2023-01-19T09:35:08;6.70;54.30
14101;DHT22;7127;49.372;8.166;2023-01-19T09:37:36;6.60;54.00
14101;DHT22;7127;49.372;8.166;2023-01-19T09:40:25;7.00;54.30
14101;DHT22;7127;49.372;8.166;2023-01-19T09:43:34;6.70;54.10
14101;DHT22;7127;49.372;8.166;2023-01-19T09:46:05;6.70;53.90
14101;DHT22;7127;49.372;8.166;2023-01-19T09:48:45;6.70;53.70
14101;DHT22;7127;49.372;8.166;2023-01-19T09:59:29;6.60;53.30
14101;DHT22;7127;49.372;8.166;2023-01-19T10:10:26;6.50;53.40
14101;DHT22;7127;49.372;8.166;2023-01-19T10:13:01;6.40;53.50
14101;DHT22;7127;49.372;8.166;2023-01-19T10:15:51;6.20;53.20
14101;DHT22;7127;49.372;8.166;2023-01-19T10:18:22;6.30;53.40
14101;DHT22;7127;49.372;8.166;2023-01-19T10:25:46;6.20;53.20
14101;DHT22;7127;49.372;8.166;2023-01-19T10:28:15;6.00;53.60
14101;DHT22;7127;49.372;8.166;2023-01-19T10:30:46;6.10;53.90
14101;DHT22;7127;49.372;8.166;2023-01-19T10:33:13;6.00;54.10
14101;DHT22;7127;49.372;8.166;2023-01-19T10:35:41;6.10;54.10
14101;DHT22;7127;49.372;8.166;2023-01-19T10:38:12;6.30;54.70
14101;DHT22;7127;49.372;8.166;2023-01-19T10:40:47;6.30;54.20
14101;DHT22;7127;49.372;8.166;2023-01-19T10:43:42;6.40;54.30
14101;DHT22;7127;49.372;8.166;2023-01-19T10:46:23;7.00;54.80
14101;DHT22;7127;49.372;8.166;2023-01-19T10:48:52;6.50;54.10
14101;DHT22;7127;49.372;8.166;2023-01-19T10:51:20;6.60;54.00
14101;DHT22;7127;49.372;8.166;2023-01-19T10:53:59;6.60;54.00
14101;DHT22;7127;49.372;8.166;2023-01-19T10:56:30;7.60;54.70
14101;DHT22;7127;49.372;8.166;2023-01-19T10:58:59;6.80;53.90
14101;DHT22;7127;49.372;8.166;2023-01-19T11:01:27;6.80;53.70
14101;DHT22;7127;49.372;8.166;2023-01-19T11:03:56;6.80;53.50
14101;DHT22;7127;49.372;8.166;2023-01-19T11:06:31;7.70;54.20
14101;DHT22;7127;49.372;8.166;2023-01-19T11:09:16;6.90;53.50
14101;DHT22;7127;49.372;8.166;2023-01-19T11:11:47;7.10;53.30
14101;DHT22;7127;49.372;8.166;2023-01-19T11:14:18;7.00;53.00
14101;DHT22;7127;49.372;8.166;2023-01-19T11:16:48;7.30;53.20
14101;DHT22;7127;49.372;8.166;2023-01-19T11:19:20;7.00;53.10
14101;DHT22;7127;49.372;8.166;2023-01-19T11:21:49;8.00;53.80
14101;DHT22;7127;49.372;8.166;2023-01-19T11:24:16;7.30;53.30
14101;DHT22;7127;49.372;8.166;2023-01-19T11:26:48;7.30;53.20
14101;DHT22;7127;49.372;8.166;2023-01-19T11:29:17;7.40;52.80
14101;DHT22;7127;49.372;8.166;2023-01-19T11:31:46;7.40;52.70
14101;DHT22;7127;49.372;8.166;2023-01-19T11:34:25;7.40;52.40
14101;DHT22;7127;49.372;8.166;2023-01-19T11:36:57;7.40;52.00
14101;DHT22;7127;49.372;8.166;2023-01-19T11:39:26;7.50;52.20
14101;DHT22;7127;49.372;8.166;2023-01-19T11:41:56;7.50;52.10
14101;DHT22;7127;49.372;8.166;2023-01-19T11:44:26;7.50;51.90
14101;DHT22;7127;49.372;8.166;2023-01-19T11:46:57;7.50;52.00
14101;DHT22;7127;49.372;8.166;2023-01-19T11:49:32;7.60;51.70
14101;DHT22;7127;49.372;8.166;2023-01-19T11:52:05;7.90;52.00
14101;DHT22;7127;49.372;8.166;2023-01-19T11:54:36;7.70;51.90
14101;DHT22;7127;49.372;8.166;2023-01-19T11:57:12;7.80;52.10
14101;DHT22;7127;49.372;8.166;2023-01-19T11:59:39;8.40;52.30
14101;DHT22;7127;49.372;8.166;2023-01-19T12:02:17;7.90;51.70
14101;DHT22;7127;49.372;8.166;2023-01-19T12:04:47;8.20;51.90
14101;DHT22;7127;49.372;8.166;2023-01-19T12:07:19;8.00;51.60
14101;DHT22;7127;49.372;8.166;2023-01-19T12:09:51;8.30;51.80
14101;DHT22;7127;49.372;8.166;2023-01-19T12:12:25;8.20;51.70
14101;DHT22;7127;49.372;8.166;2023-01-19T12:14:57;8.90;52.10
14101;DHT22;7127;49.372;8.166;2023-01-19T12:17:27;8.50;51.90
14101;DHT22;7127;49.372;8.166;2023-01-19T12:20:02;8.30;51.60
14101;DHT22;7127;49.372;8.166;2023-01-19T12:22:35;8.30;51.30
14101;DHT22;7127;49.372;8.166;2023-01-19T12:25:14;8.40;51.40
14101;DHT22;7127;49.372;8.166;2023-01-19T12:27:47;8.40;51.40
14101;DHT22;7127;49.372;8.166;2023-01-19T12:30:18;8.50;51.60
14101;DHT22;7127;49.372;8.166;2023-01-19T12:32:45;8.50;51.40
14101;DHT22;7127;49.372;8.166;2023-01-19T12:38:44;8.50;50.30
14101;DHT22;7127;49.372;8.166;2023-01-19T12:41:27;8.50;50.80
14101;DHT22;7127;49.372;8.166;2023-01-19T12:44:14;8.50;50.60
14101;DHT22;7127;49.372;8.166;2023-01-19T12:46:44;8.50;50.60
14101;DHT22;7127;49.372;8.166;2023-01-19T12:49:20;8.50;50.90
14101;DHT22;7127;49.372;8.166;2023-01-19T12:51:48;8.50;50.60
14101;DHT22;7127;49.372;8.166;2023-01-19T12:54:20;9.00;51.20
14101;DHT22;7127;49.372;8.166;2023-01-19T12:56:48;8.80;51.00
14101;DHT22;7127;49.372;8.166;2023-01-19T12:59:25;8.80;51.00
14101;DHT22;7127;49.372;8.166;2023-01-19T13:08:25;8.50;50.30
14101;DHT22;7127;49.372;8.166;2023-01-19T13:11:18;8.50;50.00
14101;DHT22;7127;49.372;8.166;2023-01-19T13:17:22;8.50;49.40
14101;DHT22;7127;49.372;8.166;2023-01-19T13:20:04;8.50;49.70
14101;DHT22;7127;49.372;8.166;2023-01-19T13:23:15;8.50;50.00
14101;DHT22;7127;49.372;8.166;2023-01-19T13:25:46;9.30;50.50
14101;DHT22;7127;49.372;8.166;2023-01-19T13:28:16;8.70;50.40
14101;DHT22;7127;49.372;8.166;2023-01-19T13:30:52;8.50;50.30
14101;DHT22;7127;49.372;8.166;2023-01-19T13:33:23;9.10;50.60
14101;DHT22;7127;49.372;8.166;2023-01-19T13:35:54;8.50;50.20
14101;DHT22;7127;49.372;8.166;2023-01-19T13:38:24;8.40;50.20
14101;DHT22;7127;49.372;8.166;2023-01-19T13:40:52;8.80;50.50
14101;DHT22;7127;49.372;8.166;2023-01-19T13:43:24;8.60;50.20
14101;DHT22;7127;49.372;8.166;2023-01-19T13:45:53;8.70;50.20
14101;DHT22;7127;49.372;8.166;2023-01-19T13:48:23;8.60;50.20
14101;DHT22;7127;49.372;8.166;2023-01-19T13:51:01;8.70;50.20
14101;DHT22;7127;49.372;8.166;2023-01-19T13:53:29;9.10;50.30
14101;DHT22;7127;49.372;8.166;2023-01-19T13:56:17;8.70;50.00
14101;DHT22;7127;49.372;8.166;2023-01-19T13:59:13;8.70;49.80
14101;DHT22;7127;49.372;8.166;2023-01-19T14:01:41;8.70;49.70
14101;DHT22;7127;49.372;8.166;2023-01-19T14:04:25;8.80;49.90
14101;DHT22;7127;49.372;8.166;2023-01-19T14:06:52;9.00;50.00
14101;DHT22;7127;49.372;8.166;2023-01-19T14:09:21;9.10;50.10
14101;DHT22;7127;49.372;8.166;2023-01-19T14:12:10;9.50;50.40
14101;DHT22;7127;49.372;8.166;2023-01-19T14:14:39;9.20;50.00
14101;DHT22;7127;49.372;8.166;2023-01-19T14:17:22;8.80;49.90
14101;DHT22;7127;49.372;8.166;2023-01-19T14:19:52;8.80;49.70
14101;DHT22;7127;49.372;8.166;2023-01-19T14:22:19;8.80;49.90
14101;DHT22;7127;49.372;8.166;2023-01-19T14:24:46;8.80;49.60
14101;DHT22;7127;49.372;8.166;2023-01-19T14:27:21;9.20;49.80
14101;DHT22;7127;49.372;8.166;2023-01-19T14:29:50;8.80;49.40
14101;DHT22;7127;49.372;8.166;2023-01-19T14:32:20;8.90;49.60
14101;DHT22;7127;49.372;8.166;2023-01-19T14:34:51;8.80;49.70
14101;DHT22;7127;49.372;8.166;2023-01-19T14:37:21;8.80;49.50
14101;DHT22;7127;49.372;8.166;2023-01-19T14:39:50;9.70;50.10
14101;DHT22;7127;49.372;8.166;2023-01-19T14:42:21;8.80;49.50
14101;DHT22;7127;49.372;8.166;2023-01-19T14:44:51;9.10;49.70
14101;DHT22;7127;49.372;8.166;2023-01-19T14:47:27;8.80;49.50
14101;DHT22;7127;49.372;8.166;2023-01-19T14:50:01;8.90;49.40
14101;DHT22;7127;49.372;8.166;2023-01-19T14:52:32;9.00;49.50
14101;DHT22;7127;49.372;8.166;2023-01-19T14:55:00;9.00;49.60
14101;DHT22;7127;49.372;8.166;2023-01-19T14:57:32;8.90;49.20
14101;DHT22;7127;49.372;8.166;2023-01-19T15:00:00;8.80;49.90
14101;DHT22;7127;49.372;8.166;2023-01-19T15:02:28;9.00;49.40
14101;DHT22;7127;49.372;8.166;2023-01-19T15:04:56;9.70;49.90
14101;DHT22;7127;49.372;8.166;2023-01-19T15:07:24;8.90;49.40
14101;DHT22;7127;49.372;8.166;2023-01-19T15:10:03;8.80;49.40
14101;DHT22;7127;49.372;8.166;2023-01-19T15:12:30;8.80;49.20
14101;DHT22;7127;49.372;8.166;2023-01-19T15:14:57;8.80;49.30
14101;DHT22;7127;49.372;8.166;2023-01-19T15:17:24;9.20;49.60
14101;DHT22;7127;49.372;8.166;2023-01-19T15:19:52;9.10;49.40
14101;DHT22;7127;49.372;8.166;2023-01-19T15:22:23;8.90;49.20
14101;DHT22;7127;49.372;8.166;2023-01-19T15:24:51;8.80;49.30
14101;DHT22;7127;49.372;8.166;2023-01-19T15:27:21;8.80;49.10
14101;DHT22;7127;49.372;8.166;2023-01-19T15:29:49;8.80;49.30
14101;DHT22;7127;49.372;8.166;2023-01-19T15:32:16;8.80;49.30
14101;DHT22;7127;49.372;8.166;2023-01-19T15:34:43;8.90;49.30
14101;DHT22;7127;49.372;8.166;2023-01-19T15:37:10;8.80;49.40
14101;DHT22;7127;49.372;8.166;2023-01-19T15:39:38;8.80;49.40
14101;DHT22;7127;49.372;8.166;2023-01-19T15:42:09;8.70;49.30
14101;DHT22;7127;49.372;8.166;2023-01-19T15:44:36;8.80;49.40
14101;DHT22;7127;49.372;8.166;2023-01-19T15:47:04;10.00;49.40
14101;DHT22;7127;49.372;8.166;2023-01-19T15:49:30;8.80;49.30
14101;DHT22;7127;49.372;8.166;2023-01-19T15:51:57;8.90;49.20
14101;DHT22;7127;49.372;8.166;2023-01-19T15:54:24;8.70;49.10
14101;DHT22;7127;49.372;8.166;2023-01-19T15:56:53;8.70;49.00
14101;DHT22;7127;49.372;8.166;2023-01-19T15:59:20;8.70;49.10
14101;DHT22;7127;49.372;8.166;2023-01-19T16:01:48;8.70;49.00
14101;DHT22;7127;49.372;8.166;2023-01-19T16:04:15;8.60;48.90
14101;DHT22;7127;49.372;8.166;2023-01-19T16:06:42;9.20;49.40
14101;DHT22;7127;49.372;8.166;2023-01-19T16:09:09;9.10;49.40
14101;DHT22;7127;49.372;8.166;2023-01-19T16:11:41;8.70;49.20
14101;DHT22;7127;49.372;8.166;2023-01-19T16:14:09;8.70;49.20
14101;DHT22;7127;49.372;8.166;2023-01-19T16:16:36;8.60;49.20
14101;DHT22;7127;49.372;8.166;2023-01-19T16:19:03;8.90;49.30
14101;DHT22;7127;49.372;8.166;2023-01-19T16:21:30;8.50;49.70
14101;DHT22;7127;49.372;8.166;2023-01-19T16:23:57;8.60;49.30
14101;DHT22;7127;49.372;8.166;2023-01-19T16:26:29;8.60;49.30
14101;DHT22;7127;49.372;8.166;2023-01-19T16:28:58;8.70;49.40
14101;DHT22;7127;49.372;8.166;2023-01-19T16:31:27;8.40;49.20
14101;DHT22;7127;49.372;8.166;2023-01-19T16:33:54;8.80;49.50
14101;DHT22;7127;49.372;8.166;2023-01-19T16:36:24;8.30;49.20
14101;DHT22;7127;49.372;8.166;2023-01-19T16:38:51;8.30;49.30
14101;DHT22;7127;49.372;8.166;2023-01-19T16:41:19;9.00;49.90
14101;DHT22;7127;49.372;8.166;2023-01-19T16:43:51;8.30;49.40
14101;DHT22;7127;49.372;8.166;2023-01-19T16:46:20;8.30;49.50
14101;DHT22;7127;49.372;8.166;2023-01-19T16:48:51;8.20;49.40
14101;DHT22;7127;49.372;8.166;2023-01-19T16:51:24;8.20;49.40
14101;DHT22;7127;49.372;8.166;2023-01-19T16:53:51;8.20;49.40
14101;DHT22;7127;49.372;8.166;2023-01-19T16:56:18;8.10;49.30
14101;DHT22;7127;49.372;8.166;2023-01-19T16:58:45;9.50;50.40
14101;DHT22;7127;49.372;8.166;2023-01-19T17:01:14;8.20;49.40
14101;DHT22;7127;49.372;8.166;2023-01-19T17:03:42;8.50;49.70
14101;DHT22;7127;49.372;8.166;2023-01-19T17:06:13;8.30;49.50